Time;durP1;ratioP1;P1;durP2;ratioP2;P2;SDS_P1;SDS_P2;PMS_P1;PMS_P2;Temp;Humidity;BMP_temperature;BMP_pressure;BME280_temperature;BME280_humidity;BME280_pressure;Samples;Min_cycle;Max_cycle;Signal;HPM_P1;HPM_P2
2023/04/17 00:00:38;;;;;;;39.53;19.35;;;7.70;99.90;;;;;;5040970;28;20127;-69
2023/04/17 00:03:04;;;;;;;47.25;22.88;;;7.70;99.90;;;;;;5039545;28;20475;-68
2023/04/17 00:05:30;;;;;;;41.10;21.17;;;7.70;99.90;;;;;;5056460;28;20514;-68
2023/04/17 00:07:58;;;;;;;40.53;20.60;;;7.70;99.90;;;;;;5041948;28;20488;-68
2023/04/17 00:10:24;;;;;;;44.38;22.67;;;7.60;99.90;;;;;;5039321;28;20061;-68
2023/04/17 00:12:50;;;;;;;41.30;21.75;;;7.70;99.90;;;;;;5042928;28;20029;-67
2023/04/17 00:15:16;;;;;;;39.25;21.50;;;7.70;99.90;;;;;;5042804;28;20045;-69
2023/04/17 00:17:41;;;;;;;38.35;18.35;;;7.60;99.90;;;;;;5040092;28;20037;-68
2023/04/17 00:20:09;;;;;;;41.95;20.55;;;7.60;99.90;;;;;;5043069;28;20037;-69
2023/04/17 00:22:35;;;;;;;32.22;16.08;;;7.70;99.90;;;;;;5045138;28;20037;-67
2023/04/17 00:25:01;;;;;;;39.08;18.00;;;7.80;99.90;;;;;;5043109;28;20423;-64
2023/04/17 00:27:27;;;;;;;40.15;21.02;;;7.70;99.90;;;;;;5045517;28;20047;-67
2023/04/17 00:29:52;;;;;;;43.95;21.25;;;7.70;99.90;;;;;;5046707;28;20098;-67
2023/04/17 00:32:18;;;;;;;39.83;21.65;;;7.70;99.90;;;;;;5063422;28;20037;-69
2023/04/17 00:34:43;;;;;;;47.95;21.73;;;7.70;99.90;;;;;;5063512;28;20048;-69
2023/04/17 00:37:09;;;;;;;40.65;21.67;;;7.70;99.90;;;;;;5046366;28;20044;-68
2023/04/17 00:39:34;;;;;;;41.28;20.35;;;7.70;99.90;;;;;;5046042;28;20052;-68
2023/04/17 00:42:00;;;;;;;40.90;20.92;;;7.70;99.90;;;;;;5063989;28;20434;-66
2023/04/17 00:44:26;;;;;;;37.95;20.48;;;7.70;99.90;;;;;;5044608;28;20049;-68
2023/04/17 00:46:51;;;;;;;39.17;20.75;;;7.70;99.90;;;;;;5048243;28;20186;-70
2023/04/17 00:49:18;;;;;;;46.63;22.88;;;7.70;99.90;;;;;;5045509;28;20041;-66
2023/04/17 00:51:43;;;;;;;37.60;18.67;;;7.60;99.90;;;;;;5049968;28;20059;-66
2023/04/17 00:54:10;;;;;;;40.97;21.17;;;7.70;99.90;;;;;;5050948;28;20483;-65
2023/04/17 00:56:35;;;;;;;36.92;18.60;;;7.60;99.90;;;;;;5050238;28;20088;-68
2023/04/17 00:59:04;;;;;;;39.58;21.15;;;7.70;99.90;;;;;;5045215;28;20132;-68
2023/04/17 01:01:30;;;;;;;38.25;19.00;;;7.70;99.90;;;;;;5050167;28;20044;-69
2023/04/17 01:03:56;;;;;;;40.47;20.25;;;7.70;99.90;;;;;;5069286;28;20587;-68
2023/04/17 01:06:21;;;;;;;41.38;20.83;;;7.70;99.90;;;;;;5049318;28;20420;-68
2023/04/17 01:08:47;;;;;;;42.25;21.70;;;7.70;99.90;;;;;;5049714;28;20032;-69
2023/04/17 01:11:13;;;;;;;46.33;21.83;;;7.70;99.90;;;;;;5053416;28;20041;-68
2023/04/17 01:13:46;;;;;;;41.22;21.70;;;7.60;99.90;;;;;;5066996;28;20037;-67
2023/04/17 01:16:11;;;;;;;44.08;21.80;;;7.60;99.90;;;;;;5067518;28;20068;-68
2023/04/17 01:18:37;;;;;;;43.83;21.92;;;7.70;99.90;;;;;;5068673;28;20080;-68
2023/04/17 01:21:02;;;;;;;48.05;22.42;;;7.70;99.90;;;;;;5049716;28;20052;-66
2023/04/17 01:23:28;;;;;;;47.05;23.15;;;7.60;99.90;;;;;;5046492;28;20044;-68
2023/04/17 01:25:54;;;;;;;42.45;21.52;;;7.60;99.90;;;;;;5062700;28;20107;-68
2023/04/17 01:28:19;;;;;;;46.88;23.10;;;7.70;99.90;;;;;;5045818;28;20033;-69
2023/04/17 01:30:45;;;;;;;49.13;23.33;;;7.70;99.90;;;;;;5061874;28;20472;-69
2023/04/17 01:33:11;;;;;;;46.58;21.02;;;7.60;99.90;;;;;;5045437;28;20098;-68
2023/04/17 01:35:36;;;;;;;45.85;23.45;;;7.60;99.90;;;;;;5048199;28;20049;-69
2023/04/17 01:38:02;;;;;;;44.53;22.77;;;7.70;99.90;;;;;;5060311;28;20512;-69
2023/04/17 01:40:27;;;;;;;49.08;22.85;;;7.70;99.90;;;;;;5059853;28;20169;-69
2023/04/17 01:42:53;;;;;;;50.95;24.02;;;7.70;99.90;;;;;;5043266;28;20049;-68
2023/04/17 01:45:20;;;;;;;51.55;23.58;;;7.70;99.90;;;;;;5044092;28;20087;-69
2023/04/17 01:47:46;;;;;;;47.47;22.75;;;7.60;99.90;;;;;;5043261;28;20111;-69
2023/04/17 01:50:12;;;;;;;46.17;22.50;;;7.70;99.90;;;;;;5043323;28;20055;-68
2023/04/17 01:52:38;;;;;;;40.10;17.35;;;7.70;99.90;;;;;;5043579;28;20587;-65
2023/04/17 01:55:04;;;;;;;49.80;22.05;;;7.70;99.90;;;;;;5043246;28;20045;-67
2023/04/17 01:57:31;;;;;;;52.25;23.17;;;7.70;99.90;;;;;;5045037;28;20048;-68
2023/04/17 01:59:57;;;;;;;61.67;26.10;;;7.70;99.90;;;;;;5057494;28;20459;-68
2023/04/17 02:02:22;;;;;;;54.10;26.73;;;7.60;99.90;;;;;;5044331;28;20069;-69
2023/04/17 02:04:48;;;;;;;50.15;23.45;;;7.70;99.90;;;;;;5041655;28;21818;-67
2023/04/17 02:07:14;;;;;;;58.83;25.67;;;7.70;99.90;;;;;;5044373;28;20395;-68
2023/04/17 02:09:39;;;;;;;53.95;23.65;;;7.70;99.90;;;;;;5057631;28;20120;-66
2023/04/17 02:12:05;;;;;;;64.35;27.35;;;7.70;99.90;;;;;;5060604;28;20471;-65
2023/04/17 02:14:31;;;;;;;66.45;28.30;;;7.70;99.90;;;;;;5042230;28;20516;-69
2023/04/17 02:16:57;;;;;;;58.67;26.33;;;7.70;99.90;;;;;;5043306;28;20055;-69
2023/04/17 02:19:22;;;;;;;60.08;25.38;;;7.60;99.90;;;;;;5038508;28;20106;-68
2023/04/17 02:21:48;;;;;;;59.95;26.92;;;7.70;99.90;;;;;;5043753;28;20044;-69
2023/04/17 02:24:13;;;;;;;57.13;23.85;;;7.70;99.90;;;;;;5043002;28;20051;-67
2023/04/17 02:26:39;;;;;;;57.75;25.23;;;7.70;99.90;;;;;;5043580;28;20059;-67
2023/04/17 02:29:05;;;;;;;58.03;24.90;;;7.70;99.90;;;;;;5042743;28;20029;-69
2023/04/17 02:31:30;;;;;;;41.70;17.50;;;7.80;99.90;;;;;;5041510;28;21180;-67
2023/04/17 02:33:56;;;;;;;57.83;25.33;;;7.70;99.90;;;;;;5041992;28;20499;-69
2023/04/17 02:36:22;;;;;;;62.53;28.88;;;7.70;99.90;;;;;;5041517;28;20052;-69
2023/04/17 02:38:47;;;;;;;60.88;26.70;;;7.70;99.90;;;;;;5042604;28;20045;-68
2023/04/17 02:41:13;;;;;;;59.22;27.70;;;7.70;99.90;;;;;;5044117;28;20047;-68
2023/04/17 02:43:38;;;;;;;66.18;28.52;;;7.60;99.90;;;;;;5043442;28;20092;-68
2023/04/17 02:46:04;;;;;;;63.17;27.48;;;7.70;99.90;;;;;;5061150;28;20109;-68
2023/04/17 02:48:29;;;;;;;56.45;26.33;;;7.60;99.90;;;;;;5041629;28;20537;-68
2023/04/17 02:50:55;;;;;;;67.35;29.23;;;7.70;99.90;;;;;;5043603;28;20037;-68
2023/04/17 02:53:20;;;;;;;64.13;28.73;;;7.70;99.90;;;;;;5060725;28;20348;-69
2023/04/17 02:55:46;;;;;;;63.78;28.75;;;7.80;99.90;;;;;;5058963;28;20033;-68
2023/04/17 02:58:12;;;;;;;69.65;28.58;;;7.70;99.90;;;;;;5045278;28;20040;-69
2023/04/17 03:00:38;;;;;;;65.22;29.05;;;7.70;99.90;;;;;;5040349;28;20048;-69
2023/04/17 03:03:03;;;;;;;67.50;30.33;;;7.90;99.90;;;;;;5040373;28;20079;-69
2023/04/17 03:05:29;;;;;;;63.28;28.60;;;7.80;99.90;;;;;;5044784;28;20045;-69
2023/04/17 03:07:57;;;;;;;69.22;30.70;;;7.90;99.90;;;;;;5056821;28;20500;-70
2023/04/17 03:10:23;;;;;;;61.45;28.67;;;7.80;99.90;;;;;;5039643;28;20337;-68
2023/04/17 03:12:48;;;;;;;64.93;29.70;;;7.70;99.90;;;;;;5040888;28;20044;-69
2023/04/17 03:15:14;;;;;;;61.05;29.17;;;7.80;99.90;;;;;;5059810;28;20390;-69
2023/04/17 03:17:39;;;;;;;65.60;28.85;;;7.80;99.90;;;;;;5039310;28;20057;-69
2023/04/17 03:20:06;;;;;;;58.25;27.17;;;7.80;99.90;;;;;;5040755;28;20616;-70
2023/04/17 03:22:32;;;;;;;68.65;30.33;;;7.80;99.90;;;;;;5042581;28;20045;-69
2023/04/17 03:24:58;;;;;;;63.05;30.38;;;7.80;99.90;;;;;;5039793;28;20064;-69
2023/04/17 03:27:23;;;;;;;69.90;30.38;;;7.80;99.90;;;;;;5046462;28;20114;-70
2023/04/17 03:29:54;;;;;;;67.88;30.10;;;7.80;99.90;;;;;;5045431;28;20086;-70
2023/04/17 03:32:19;;;;;;;65.75;30.13;;;7.80;99.90;;;;;;5044672;28;20033;-69
2023/04/17 03:34:46;;;;;;;62.00;30.63;;;7.70;99.90;;;;;;5045327;28;20487;-69
2023/04/17 03:37:11;;;;;;;70.60;32.38;;;7.80;99.90;;;;;;5044080;28;20040;-69
2023/04/17 03:39:37;;;;;;;66.18;30.83;;;7.80;99.90;;;;;;5043284;28;20040;-68
2023/04/17 03:42:02;;;;;;;73.72;32.42;;;7.80;99.90;;;;;;5040204;28;20071;-69
2023/04/17 03:44:28;;;;;;;60.05;28.83;;;7.90;99.90;;;;;;5042881;28;20052;-69
2023/04/17 03:46:53;;;;;;;62.50;28.50;;;7.90;99.90;;;;;;5040942;28;20080;-71
2023/04/17 03:49:19;;;;;;;68.97;30.63;;;7.80;99.90;;;;;;5041788;28;20114;-69
2023/04/17 03:51:45;;;;;;;66.55;30.27;;;7.90;99.90;;;;;;5042045;28;20166;-70
2023/04/17 03:54:10;;;;;;;65.82;29.23;;;7.90;99.90;;;;;;5057632;28;20033;-70
2023/04/17 03:56:36;;;;;;;67.45;30.88;;;7.80;99.90;;;;;;5039918;28;20440;-70
2023/04/17 03:59:03;;;;;;;70.30;32.08;;;7.80;99.90;;;;;;5024001;28;20079;-69
2023/04/17 04:01:28;;;;;;;69.65;31.73;;;7.80;99.90;;;;;;5038965;28;20055;-70
2023/04/17 04:03:54;;;;;;;62.10;29.52;;;7.80;99.90;;;;;;5059291;28;20056;-69
2023/04/17 04:06:21;;;;;;;66.25;29.23;;;7.90;99.90;;;;;;5042989;28;20037;-69
2023/04/17 04:08:48;;;;;;;65.70;29.65;;;7.90;99.90;;;;;;5040416;28;20041;-69
2023/04/17 04:11:14;;;;;;;64.93;28.58;;;7.80;99.90;;;;;;5041566;28;20072;-68
2023/04/17 04:13:40;;;;;;;73.30;30.17;;;7.80;99.90;;;;;;5040152;28;20045;-68
2023/04/17 04:16:06;;;;;;;66.30;28.88;;;7.90;99.90;;;;;;5044498;28;20422;-69
2023/04/17 04:18:31;;;;;;;65.13;30.42;;;7.80;99.90;;;;;;5042550;28;20068;-70
2023/04/17 04:20:57;;;;;;;62.88;29.38;;;7.70;99.90;;;;;;5041534;28;20038;-69
2023/04/17 04:23:23;;;;;;;63.90;29.98;;;7.70;99.90;;;;;;5045372;28;20045;-69
2023/04/17 04:25:49;;;;;;;64.65;30.05;;;7.70;99.90;;;;;;5044416;28;20450;-69
2023/04/17 04:28:16;;;;;;;62.05;29.50;;;7.80;99.90;;;;;;5044237;28;20040;-70
2023/04/17 04:30:49;;;;;;;65.57;30.25;;;7.70;99.90;;;;;;5042341;28;20051;-69
2023/04/17 04:33:19;;;;;;;60.58;28.23;;;7.80;99.90;;;;;;5023659;28;20033;-70
2023/04/17 04:35:46;;;;;;;59.10;29.48;;;7.70;99.90;;;;;;5023632;28;20158;-69
2023/04/17 04:38:12;;;;;;;63.25;30.33;;;7.80;99.90;;;;;;5040583;28;20033;-69
2023/04/17 04:40:38;;;;;;;66.25;30.50;;;7.80;99.90;;;;;;5039870;28;21471;-69
2023/04/17 04:43:05;;;;;;;62.92;30.45;;;7.80;99.90;;;;;;5036200;28;20045;-69
2023/04/17 04:45:31;;;;;;;57.75;27.42;;;7.70;99.90;;;;;;5042901;28;20037;-70
2023/04/17 04:47:56;;;;;;;57.60;26.77;;;7.80;99.90;;;;;;5045279;28;20095;-67
2023/04/17 04:50:23;;;;;;;60.22;29.20;;;7.70;99.90;;;;;;5059328;28;20047;-69
2023/04/17 04:52:48;;;;;;;59.38;28.10;;;7.70;99.90;;;;;;5043507;28;20617;-71
2023/04/17 04:55:14;;;;;;;61.45;29.48;;;7.70;99.90;;;;;;5056458;28;20091;-70
2023/04/17 04:57:40;;;;;;;67.50;30.23;;;7.70;99.90;;;;;;5021959;28;20432;-69
2023/04/17 05:00:07;;;;;;;69.40;31.20;;;7.80;99.90;;;;;;5036156;28;20282;-69
2023/04/17 05:02:33;;;;;;;65.57;30.50;;;7.90;99.90;;;;;;5040667;28;20132;-70
2023/04/17 05:04:58;;;;;;;61.63;30.17;;;7.80;99.90;;;;;;5044721;28;20151;-70
2023/04/17 05:07:24;;;;;;;67.13;30.33;;;7.90;99.90;;;;;;5043083;28;20103;-71
2023/04/17 05:09:50;;;;;;;57.00;28.52;;;7.90;99.90;;;;;;5043132;28;20075;-69
2023/04/17 05:12:16;;;;;;;63.42;28.70;;;7.80;99.90;;;;;;5043744;28;20094;-70
2023/04/17 05:14:41;;;;;;;66.88;30.50;;;7.80;99.90;;;;;;5048504;28;20095;-69
2023/04/17 05:17:07;;;;;;;65.25;30.08;;;7.80;99.90;;;;;;5048414;28;20479;-71
2023/04/17 05:19:32;;;;;;;62.47;30.05;;;7.80;99.90;;;;;;5046778;28;20048;-70
2023/04/17 05:21:58;;;;;;;55.53;29.55;;;7.80;99.90;;;;;;5065490;28;20484;-70
2023/04/17 05:24:24;;;;;;;58.00;28.92;;;7.80;99.90;;;;;;5055333;28;20127;-70
2023/04/17 05:26:49;;;;;;;57.28;26.13;;;7.80;99.90;;;;;;5060859;28;20045;-70
2023/04/17 05:29:15;;;;;;;58.67;30.23;;;7.80;99.90;;;;;;5060122;28;20472;-71
2023/04/17 05:31:40;;;;;;;57.50;28.08;;;7.70;99.90;;;;;;5047672;28;20656;-69
2023/04/17 05:34:06;;;;;;;54.35;27.73;;;7.80;99.90;;;;;;5043688;28;20110;-72
2023/04/17 05:36:32;;;;;;;57.13;26.98;;;7.80;99.90;;;;;;5044668;28;20064;-71
2023/04/17 05:38:57;;;;;;;48.92;25.10;;;7.80;99.90;;;;;;5024457;28;20056;-71
2023/04/17 05:41:23;;;;;;;53.88;25.77;;;7.80;99.90;;;;;;5057703;28;20052;-70
2023/04/17 05:43:49;;;;;;;53.72;25.38;;;7.70;99.90;;;;;;5041342;28;20404;-69
2023/04/17 05:46:15;;;;;;;52.47;26.27;;;7.80;99.90;;;;;;5046039;28;20045;-72
2023/04/17 05:48:40;;;;;;;53.97;27.27;;;7.70;99.90;;;;;;5056256;28;20499;-70
2023/04/17 05:51:06;;;;;;;61.63;29.05;;;7.70;99.90;;;;;;5056147;28;20146;-71
2023/04/17 05:53:32;;;;;;;62.25;28.73;;;7.70;99.90;;;;;;5044671;28;20287;-71
2023/04/17 05:55:57;;;;;;;63.10;29.50;;;7.70;99.90;;;;;;5045446;28;20510;-72
2023/04/17 05:58:23;;;;;;;57.13;27.65;;;7.70;99.90;;;;;;5045889;28;20079;-71
2023/04/17 06:00:48;;;;;;;57.55;25.92;;;7.70;99.90;;;;;;5060183;28;20483;-71
2023/04/17 06:03:14;;;;;;;53.28;26.98;;;7.70;99.90;;;;;;5044956;28;20036;-70
2023/04/17 06:05:40;;;;;;;52.90;26.27;;;7.70;99.90;;;;;;5043875;28;20461;-70
2023/04/17 06:08:05;;;;;;;59.97;29.02;;;7.80;99.90;;;;;;5042226;28;20037;-70
2023/04/17 06:10:32;;;;;;;54.05;26.35;;;7.80;99.90;;;;;;5039041;28;20044;-70
2023/04/17 06:12:59;;;;;;;63.65;29.08;;;7.80;99.90;;;;;;5041135;28;20381;-70
2023/04/17 06:15:25;;;;;;;57.72;27.27;;;7.80;99.90;;;;;;5047013;28;20045;-71
2023/04/17 06:17:50;;;;;;;55.60;26.50;;;7.90;99.90;;;;;;5046605;28;20029;-70
2023/04/17 06:20:16;;;;;;;53.97;27.20;;;7.80;99.90;;;;;;5049083;28;20048;-70
2023/04/17 06:22:43;;;;;;;55.95;26.45;;;7.90;99.90;;;;;;5050719;28;20087;-71
2023/04/17 06:25:09;;;;;;;53.67;22.80;;;7.80;99.90;;;;;;5047709;28;20045;-71
2023/04/17 06:27:35;;;;;;;54.30;26.58;;;7.90;99.90;;;;;;5043051;28;20059;-71
2023/04/17 06:30:00;;;;;;;57.17;27.08;;;7.90;99.90;;;;;;5055078;28;20057;-71
2023/04/17 06:32:26;;;;;;;56.90;26.73;;;7.90;99.90;;;;;;5069976;28;20102;-71
2023/04/17 06:34:51;;;;;;;49.58;26.15;;;7.90;99.90;;;;;;5059621;28;20051;-71
2023/04/17 06:37:17;;;;;;;51.47;26.20;;;7.90;99.90;;;;;;5050023;28;20404;-71
2023/04/17 06:39:43;;;;;;;55.58;27.08;;;7.90;99.90;;;;;;5047396;28;20095;-71
2023/04/17 06:42:08;;;;;;;49.47;25.52;;;7.90;99.90;;;;;;5051463;28;20086;-72
2023/04/17 06:44:34;;;;;;;52.80;25.83;;;7.80;99.90;;;;;;5053056;28;20086;-71
2023/04/17 06:47:02;;;;;;;46.30;22.33;;;8.00;99.90;;;;;;5071689;28;20037;-71
2023/04/17 06:49:30;;;;;;;48.97;25.40;;;7.90;99.90;;;;;;5069386;28;20494;-71
2023/04/17 06:51:56;;;;;;;52.30;25.45;;;8.00;99.90;;;;;;5061637;28;20511;-70
2023/04/17 06:54:22;;;;;;;50.25;25.10;;;8.00;99.90;;;;;;5051511;28;20451;-71
2023/04/17 06:56:47;;;;;;;51.38;25.83;;;8.00;99.90;;;;;;5056389;28;20044;-68
2023/04/17 06:59:13;;;;;;;49.78;25.85;;;8.10;99.90;;;;;;5048904;28;20110;-71
2023/04/17 07:01:39;;;;;;;52.67;26.83;;;8.20;99.90;;;;;;5060294;28;20045;-71
2023/04/17 07:04:05;;;;;;;52.58;25.58;;;8.20;99.90;;;;;;5054569;28;20049;-72
2023/04/17 07:06:33;;;;;;;53.03;25.33;;;8.10;99.90;;;;;;5068976;28;20098;-71
2023/04/17 07:09:00;;;;;;;49.08;26.35;;;8.10;99.90;;;;;;5053426;28;20041;-71
2023/04/17 07:11:25;;;;;;;46.53;24.92;;;8.20;99.90;;;;;;5068601;28;20036;-70
2023/04/17 07:13:51;;;;;;;47.33;24.83;;;8.30;99.90;;;;;;5049977;28;20063;-68
2023/04/17 07:16:16;;;;;;;47.63;25.33;;;8.30;99.90;;;;;;5062618;28;20048;-71
2023/04/17 07:18:42;;;;;;;44.10;25.40;;;8.40;99.90;;;;;;5046692;28;20041;-71
2023/04/17 07:21:07;;;;;;;40.92;21.42;;;8.40;99.90;;;;;;5055503;28;20472;-71
2023/04/17 07:23:33;;;;;;;47.38;24.10;;;8.50;99.90;;;;;;5046624;28;20041;-69
2023/04/17 07:25:58;;;;;;;43.10;23.92;;;8.50;99.90;;;;;;5053857;28;20037;-70
2023/04/17 07:28:24;;;;;;;49.83;25.17;;;8.50;99.90;;;;;;5048833;28;20407;-71
2023/04/17 07:30:53;;;;;;;46.15;25.17;;;8.50;99.90;;;;;;5045742;28;20290;-68
2023/04/17 07:33:19;;;;;;;45.88;24.75;;;8.60;99.90;;;;;;5045458;28;20025;-72
2023/04/17 07:35:45;;;;;;;43.30;24.73;;;8.70;99.90;;;;;;5054924;28;20075;-71
2023/04/17 07:38:11;;;;;;;43.45;23.45;;;8.80;99.90;;;;;;5049329;28;20076;-72
2023/04/17 07:40:37;;;;;;;47.30;24.67;;;8.90;99.90;;;;;;5055288;28;20406;-69
2023/04/17 07:43:02;;;;;;;45.47;23.83;;;8.90;99.90;;;;;;5055098;28;20036;-71
2023/04/17 07:45:28;;;;;;;48.22;26.02;;;9.00;99.90;;;;;;5050923;28;20507;-70
2023/04/17 07:47:54;;;;;;;45.70;25.15;;;9.10;99.90;;;;;;5064895;28;20041;-72
2023/04/17 07:50:20;;;;;;;45.58;24.38;;;9.10;99.90;;;;;;5053901;28;20135;-71
2023/04/17 07:52:46;;;;;;;45.00;24.83;;;9.10;99.90;;;;;;5059649;28;20049;-70
2023/04/17 07:55:11;;;;;;;43.65;23.58;;;9.10;99.90;;;;;;5049718;28;20051;-68
2023/04/17 07:57:45;;;;;;;44.85;24.85;;;9.20;99.90;;;;;;5047606;28;20063;-69
2023/04/17 08:00:13;;;;;;;45.25;25.55;;;9.30;99.90;;;;;;5053077;28;20056;-69
2023/04/17 08:02:39;;;;;;;43.28;23.65;;;9.30;99.90;;;;;;5029189;28;20419;-71
2023/04/17 08:05:06;;;;;;;46.75;25.20;;;9.40;99.90;;;;;;5036147;28;20456;-70
2023/04/17 08:07:32;;;;;;;47.20;24.80;;;9.40;99.90;;;;;;5069792;28;20427;-69
2023/04/17 08:09:57;;;;;;;45.10;25.30;;;9.50;99.90;;;;;;5067230;28;20045;-68
2023/04/17 08:12:23;;;;;;;42.55;22.45;;;9.60;99.90;;;;;;5055358;28;20444;-70
2023/04/17 08:14:48;;;;;;;44.33;24.00;;;9.70;99.90;;;;;;5052453;28;20670;-70
2023/04/17 08:17:19;;;;;;;43.30;25.45;;;9.80;99.90;;;;;;5050968;28;20052;-68
2023/04/17 08:19:44;;;;;;;48.55;26.15;;;9.90;99.90;;;;;;5047315;28;20068;-70
2023/04/17 08:22:10;;;;;;;42.67;23.35;;;9.90;99.90;;;;;;5054671;28;20547;-70
2023/04/17 08:24:36;;;;;;;36.17;19.20;;;10.10;99.90;;;;;;5068457;28;20637;-69
2023/04/17 08:27:02;;;;;;;45.03;23.85;;;10.30;99.90;;;;;;5066993;28;20036;-71
2023/04/17 08:29:28;;;;;;;44.53;23.85;;;10.40;99.90;;;;;;5047179;28;20041;-70
2023/04/17 08:31:53;;;;;;;41.83;23.33;;;10.60;99.90;;;;;;5064880;28;20044;-69
2023/04/17 08:34:20;;;;;;;40.50;23.77;;;10.60;99.90;;;;;;5056266;28;20188;-71
2023/04/17 08:36:46;;;;;;;39.63;22.88;;;10.60;99.90;;;;;;5057296;28;20046;-70
2023/04/17 08:39:13;;;;;;;39.50;24.33;;;10.50;99.90;;;;;;5048800;28;20041;-71
2023/04/17 08:41:47;;;;;;;36.72;19.13;;;10.40;99.90;;;;;;5040328;28;20170;-70
2023/04/17 08:44:17;;;;;;;37.13;22.50;;;10.40;99.90;;;;;;5039305;28;20045;-73
2023/04/17 08:46:43;;;;;;;40.35;22.63;;;10.50;99.90;;;;;;5043243;28;20534;-71
2023/04/17 08:49:09;;;;;;;38.13;21.60;;;10.60;99.90;;;;;;5043294;28;20041;-71
2023/04/17 08:51:34;;;;;;;41.20;23.15;;;10.70;99.90;;;;;;5045519;28;20067;-73
2023/04/17 08:54:00;;;;;;;42.42;25.15;;;10.90;99.90;;;;;;5046087;28;20055;-71
2023/04/17 08:56:27;;;;;;;38.70;24.67;;;11.00;99.90;;;;;;5044551;28;20108;-71
2023/04/17 08:58:53;;;;;;;41.40;24.98;;;11.10;99.90;;;;;;5042316;28;20041;-70
2023/04/17 09:01:19;;;;;;;43.10;25.13;;;11.30;99.90;;;;;;5044228;28;20395;-71
2023/04/17 09:03:47;;;;;;;39.92;24.95;;;11.40;99.90;;;;;;5048054;28;20053;-73
2023/04/17 09:06:14;;;;;;;41.50;24.42;;;11.50;99.90;;;;;;5047945;28;20052;-73
2023/04/17 09:08:55;;;;;;;37.58;21.52;;;11.50;99.90;;;;;;5051021;28;20045;-71
2023/04/17 09:11:21;;;;;;;43.27;24.93;;;11.60;99.90;;;;;;5053049;28;20060;-70
2023/04/17 09:13:47;;;;;;;41.00;25.67;;;11.50;99.90;;;;;;5047478;28;20535;-69
2023/04/17 09:16:14;;;;;;;42.05;25.15;;;11.40;99.90;;;;;;5058663;28;20128;-71
2023/04/17 09:18:44;;;;;;;36.78;22.10;;;11.50;99.90;;;;;;5045163;28;20048;-72
2023/04/17 09:21:15;;;;;;;42.03;24.83;;;11.70;99.90;;;;;;5053831;28;20059;-71
2023/04/17 09:23:55;;;;;;;41.03;24.10;;;11.80;99.90;;;;;;5046042;28;20759;-71
2023/04/17 09:26:40;;;;;;;42.80;25.58;;;11.90;99.90;;;;;;5053993;28;20029;-71
2023/04/17 09:29:10;;;;;;;43.70;26.58;;;12.00;99.90;;;;;;5053621;28;20563;-72
2023/04/17 09:31:37;;;;;;;45.92;26.80;;;12.00;99.90;;;;;;5056958;28;20041;-73
2023/04/17 09:34:12;;;;;;;40.17;25.30;;;12.10;99.90;;;;;;5052650;28;20049;-68
2023/04/17 09:36:42;;;;;;;44.58;26.17;;;12.20;99.90;;;;;;5048225;28;20092;-71
2023/04/17 09:39:19;;;;;;;43.42;25.98;;;12.20;99.90;;;;;;5056620;28;20076;-72
2023/04/17 09:41:45;;;;;;;44.70;26.88;;;12.30;99.90;;;;;;5049589;28;20087;-71
2023/04/17 09:44:27;;;;;;;45.58;27.83;;;12.30;99.90;;;;;;5050245;28;20049;-72
2023/04/17 09:46:53;;;;;;;43.87;26.90;;;12.40;99.90;;;;;;5050169;28;20059;-73
2023/04/17 09:49:41;;;;;;;46.90;28.67;;;12.60;99.90;;;;;;5049358;28;20388;-70
2023/04/17 09:52:07;;;;;;;46.08;27.50;;;12.80;99.90;;;;;;5066199;28;20039;-71
2023/04/17 09:54:36;;;;;;;45.03;27.38;;;12.90;99.90;;;;;;5049911;28;20044;-70
2023/04/17 09:57:03;;;;;;;45.25;28.55;;;13.00;99.90;;;;;;5056301;28;20099;-73
2023/04/17 09:59:30;;;;;;;45.85;28.70;;;13.10;99.90;;;;;;5050621;28;20056;-70
2023/04/17 10:01:56;;;;;;;49.05;28.00;;;13.10;99.90;;;;;;5054147;28;20049;-73
2023/04/17 10:04:22;;;;;;;46.42;30.25;;;13.10;99.90;;;;;;5048288;28;20052;-70
2023/04/17 10:06:48;;;;;;;44.75;29.10;;;13.20;99.90;;;;;;5047905;28;20067;-71
2023/04/17 10:09:14;;;;;;;43.60;28.08;;;13.30;99.90;;;;;;5048771;28;20040;-73
2023/04/17 10:11:43;;;;;;;44.53;28.75;;;13.50;99.90;;;;;;5049548;28;20033;-73
2023/04/17 10:14:23;;;;;;;44.10;28.38;;;13.60;99.90;;;;;;5046397;28;20122;-71
2023/04/17 10:16:49;;;;;;;42.05;27.17;;;13.70;99.90;;;;;;5048530;28;20068;-71
2023/04/17 10:19:47;;;;;;;43.78;28.27;;;13.70;99.90;;;;;;5041162;28;20063;-71
2023/04/17 10:22:18;;;;;;;40.13;29.33;;;13.60;99.90;;;;;;5008450;28;20049;-68
2023/04/17 10:25:14;;;;;;;40.20;27.92;;;13.60;99.90;;;;;;5051278;28;20096;-72
2023/04/17 10:27:40;;;;;;;38.80;26.88;;;13.60;99.90;;;;;;5064363;28;20427;-74
2023/04/17 10:30:11;;;;;;;44.65;26.08;;;13.90;99.90;;;;;;5052016;28;20062;-70
2023/04/17 10:32:38;;;;;;;41.30;28.10;;;14.00;99.90;;;;;;5065409;28;20041;-72
2023/04/17 10:35:18;;;;;;;41.45;27.60;;;14.20;99.90;;;;;;5048604;28;20076;-70
2023/04/17 10:37:47;;;;;;;39.90;29.30;;;14.30;99.90;;;;;;5044225;28;20044;-72
2023/04/17 10:40:19;;;;;;;38.83;26.85;;;14.40;99.90;;;;;;5050013;28;20047;-72
2023/04/17 10:43:16;;;;;;;37.90;28.20;;;14.50;99.90;;;;;;5051513;28;20044;-70
2023/04/17 10:46:00;;;;;;;38.83;29.58;;;14.30;99.90;;;;;;5053315;28;20045;-69
2023/04/17 10:48:31;;;;;;;39.58;29.33;;;14.30;99.90;;;;;;5050552;28;20400;-73
2023/04/17 10:50:59;;;;;;;38.95;28.83;;;14.30;99.90;;;;;;5049824;28;20532;-70
2023/04/17 10:53:42;;;;;;;37.75;29.13;;;14.30;99.90;;;;;;5048189;28;20051;-70
2023/04/17 10:56:16;;;;;;;36.45;27.98;;;14.30;99.90;;;;;;5053119;28;20044;-71
2023/04/17 10:58:58;;;;;;;36.58;27.73;;;14.40;99.90;;;;;;5057507;28;20079;-70
2023/04/17 11:01:27;;;;;;;32.03;22.87;;;14.40;99.90;;;;;;5055303;28;20404;-73
2023/04/17 11:03:53;;;;;;;33.13;23.80;;;14.60;99.90;;;;;;5051039;28;20045;-74
2023/04/17 11:06:20;;;;;;;31.35;24.00;;;14.80;99.90;;;;;;5047644;28;20036;-73
2023/04/17 11:08:47;;;;;;;28.25;20.60;;;15.10;99.90;;;;;;5048922;28;20037;-73
2023/04/17 11:11:16;;;;;;;28.85;21.98;;;15.10;99.90;;;;;;5047382;28;20140;-69
2023/04/17 11:13:45;;;;;;;30.88;23.30;;;15.20;99.90;;;;;;5047381;28;20091;-72
2023/04/17 11:16:13;;;;;;;26.33;18.83;;;15.10;99.90;;;;;;5048904;28;20060;-72
2023/04/17 11:18:40;;;;;;;28.08;21.63;;;15.10;99.90;;;;;;5047958;28;20041;-73
2023/04/17 11:21:08;;;;;;;27.70;19.75;;;14.90;99.90;;;;;;5052385;28;20491;-73
2023/04/17 11:23:35;;;;;;;28.13;19.52;;;14.80;99.90;;;;;;5045373;28;20072;-73
2023/04/17 11:26:00;;;;;;;25.45;19.80;;;14.70;99.90;;;;;;5046942;28;20040;-74
2023/04/17 11:28:27;;;;;;;25.95;19.48;;;14.60;99.90;;;;;;5050551;28;20045;-73
2023/04/17 11:30:54;;;;;;;23.92;17.35;;;14.60;99.90;;;;;;5042193;28;20060;-70
2023/04/17 11:33:20;;;;;;;27.48;18.65;;;14.70;99.90;;;;;;5053284;28;20120;-69
2023/04/17 11:35:46;;;;;;;26.98;19.40;;;14.90;99.90;;;;;;5065372;28;20057;-69
2023/04/17 11:38:19;;;;;;;24.70;17.05;;;15.10;99.90;;;;;;5063434;28;20040;-66
2023/04/17 11:40:52;;;;;;;24.80;19.38;;;15.40;99.90;;;;;;5048250;28;20146;-73
2023/04/17 11:43:20;;;;;;;25.13;18.23;;;15.40;99.90;;;;;;5047687;28;20155;-68
2023/04/17 11:45:49;;;;;;;21.30;16.08;;;15.30;99.90;;;;;;5041684;28;20123;-71
2023/04/17 11:48:16;;;;;;;22.90;15.60;;;15.20;99.90;;;;;;5048257;28;20468;-70
2023/04/17 11:50:43;;;;;;;26.95;16.23;;;14.90;99.90;;;;;;5058404;28;20056;-68
2023/04/17 11:53:14;;;;;;;25.52;16.40;;;14.80;99.90;;;;;;5050504;28;20369;-66
2023/04/17 11:55:39;;;;;;;21.10;15.45;;;14.70;99.90;;;;;;5048764;28;20127;-67
2023/04/17 11:58:07;;;;;;;24.50;16.25;;;14.70;99.90;;;;;;5041162;28;20571;-68
2023/04/17 12:00:33;;;;;;;23.02;15.90;;;14.90;99.90;;;;;;5043987;28;20040;-69
2023/04/17 12:03:00;;;;;;;20.77;15.48;;;15.20;99.90;;;;;;5046726;28;20498;-67
2023/04/17 12:05:28;;;;;;;21.45;15.07;;;15.50;99.90;;;;;;5050082;28;20033;-67
2023/04/17 12:07:59;;;;;;;20.30;15.02;;;15.70;99.90;;;;;;5045866;28;20216;-67
2023/04/17 12:10:38;;;;;;;19.10;12.05;;;15.70;99.90;;;;;;5041544;28;20193;-66
2023/04/17 12:13:04;;;;;;;22.13;13.82;;;15.70;99.90;;;;;;5042223;28;21503;-68
2023/04/17 12:15:30;;;;;;;17.13;12.75;;;15.70;99.90;;;;;;5045785;28;20621;-67
2023/04/17 12:17:55;;;;;;;19.52;13.50;;;15.80;99.90;;;;;;5044909;28;20029;-68
2023/04/17 12:20:21;;;;;;;18.70;12.13;;;15.70;99.90;;;;;;5043145;28;20446;-67
2023/04/17 12:22:46;;;;;;;17.67;13.00;;;15.50;99.90;;;;;;5043871;28;20539;-68
2023/04/17 12:25:12;;;;;;;16.92;12.60;;;15.40;99.90;;;;;;5042223;28;20485;-67
2023/04/17 12:27:38;;;;;;;19.63;13.27;;;15.40;99.90;;;;;;5047565;28;20033;-68
2023/04/17 12:30:04;;;;;;;17.95;13.32;;;15.40;99.90;;;;;;5045778;28;20106;-67
2023/04/17 12:32:29;;;;;;;18.00;12.23;;;15.50;99.90;;;;;;5045375;28;20044;-68